sensor_id;sensor_type;location;lat;lon;timestamp;temperature;humidity
4509;DHT22;2267;48.816;9.230;2023-04-29T00:00:44;15.10;99.90
4509;DHT22;2267;48.816;9.230;2023-04-29T00:03:11;15.20;99.90
4509;DHT22;2267;48.816;9.230;2023-04-29T00:05:38;15.10;99.90
4509;DHT22;2267;48.816;9.230;2023-04-29T00:08:06;15.10;99.90
4509;DHT22;2267;48.816;9.230;2023-04-29T00:10:32;15.10;99.90
4509;DHT22;2267;48.816;9.230;2023-04-29T00:12:59;15.10;99.90
4509;DHT22;2267;48.816;9.230;2023-04-29T00:15:26;15.10;99.90
4509;DHT22;2267;48.816;9.230;2023-04-29T00:17:53;15.10;99.90
4509;DHT22;2267;48.816;9.230;2023-04-29T00:20:21;15.00;99.90
4509;DHT22;2267;48.816;9.230;2023-04-29T00:22:48;15.00;99.90
4509;DHT22;2267;48.816;9.230;2023-04-29T00:25:15;15.00;99.90
4509;DHT22;2267;48.816;9.230;2023-04-29T00:27:42;15.00;99.90
4509;DHT22;2267;48.816;9.230;2023-04-29T00:30:09;15.00;99.90
4509;DHT22;2267;48.816;9.230;2023-04-29T00:32:36;15.00;99.90
4509;DHT22;2267;48.816;9.230;2023-04-29T00:35:03;15.00;99.90
4509;DHT22;2267;48.816;9.230;2023-04-29T00:37:30;15.00;99.90
4509;DHT22;2267;48.816;9.230;2023-04-29T00:39:57;15.00;99.90
4509;DHT22;2267;48.816;9.230;2023-04-29T00:42:24;15.00;99.90
4509;DHT22;2267;48.816;9.230;2023-04-29T00:44:51;14.90;99.90
4509;DHT22;2267;48.816;9.230;2023-04-29T00:47:18;14.90;99.90
4509;DHT22;2267;48.816;9.230;2023-04-29T00:49:45;14.90;99.90
4509;DHT22;2267;48.816;9.230;2023-04-29T00:52:12;14.90;99.90
4509;DHT22;2267;48.816;9.230;2023-04-29T00:54:40;14.80;99.90
4509;DHT22;2267;48.816;9.230;2023-04-29T00:57:07;14.80;99.90
4509;DHT22;2267;48.816;9.230;2023-04-29T00:59:34;14.80;99.90
4509;DHT22;2267;48.816;9.230;2023-04-29T01:02:03;14.70;99.90
4509;DHT22;2267;48.816;9.230;2023-04-29T01:04:30;14.80;99.90
4509;DHT22;2267;48.816;9.230;2023-04-29T01:07:16;14.80;99.90
4509;DHT22;2267;48.816;9.230;2023-04-29T01:20:19;14.70;99.90
4509;DHT22;2267;48.816;9.230;2023-04-29T01:22:47;14.70;99.90
4509;DHT22;2267;48.816;9.230;2023-04-29T01:25:14;14.70;99.90
4509;DHT22;2267;48.816;9.230;2023-04-29T01:28:07;14.70;99.90
4509;DHT22;2267;48.816;9.230;2023-04-29T01:30:51;14.60;99.90
4509;DHT22;2267;48.816;9.230;2023-04-29T01:36:21;14.60;99.90
4509;DHT22;2267;48.816;9.230;2023-04-29T01:39:45;14.60;99.90
4509;DHT22;2267;48.816;9.230;2023-04-29T01:41:56;14.60;99.90
4509;DHT22;2267;48.816;9.230;2023-04-29T01:44:28;14.60;99.90
4509;DHT22;2267;48.816;9.230;2023-04-29T01:46:55;14.50;99.90
4509;DHT22;2267;48.816;9.230;2023-04-29T01:49:26;14.50;99.90
4509;DHT22;2267;48.816;9.230;2023-04-29T01:51:53;14.50;99.90
4509;DHT22;2267;48.816;9.230;2023-04-29T01:54:21;14.50;99.90
4509;DHT22;2267;48.816;9.230;2023-04-29T01:56:48;14.50;99.90
4509;DHT22;2267;48.816;9.230;2023-04-29T01:59:15;14.40;99.90
4509;DHT22;2267;48.816;9.230;2023-04-29T02:01:41;14.40;99.90
4509;DHT22;2267;48.816;9.230;2023-04-29T02:04:08;14.40;99.90
4509;DHT22;2267;48.816;9.230;2023-04-29T02:06:35;14.40;99.90
4509;DHT22;2267;48.816;9.230;2023-04-29T02:09:02;14.40;99.90
4509;DHT22;2267;48.816;9.230;2023-04-29T02:11:29;14.30;99.90
4509;DHT22;2267;48.816;9.230;2023-04-29T02:13:56;14.30;99.90
4509;DHT22;2267;48.816;9.230;2023-04-29T02:16:22;14.30;99.90
4509;DHT22;2267;48.816;9.230;2023-04-29T02:18:49;14.30;99.90
4509;DHT22;2267;48.816;9.230;2023-04-29T02:21:16;14.30;99.90
4509;DHT22;2267;48.816;9.230;2023-04-29T02:23:43;14.20;99.90
4509;DHT22;2267;48.816;9.230;2023-04-29T02:26:09;14.20;99.90
4509;DHT22;2267;48.816;9.230;2023-04-29T02:28:37;14.20;99.90
4509;DHT22;2267;48.816;9.230;2023-04-29T02:31:04;14.20;99.90
4509;DHT22;2267;48.816;9.230;2023-04-29T02:33:32;14.20;99.90
4509;DHT22;2267;48.816;9.230;2023-04-29T02:35:59;14.10;99.90
4509;DHT22;2267;48.816;9.230;2023-04-29T02:38:26;14.10;99.90
4509;DHT22;2267;48.816;9.230;2023-04-29T02:40:52;14.10;99.90
4509;DHT22;2267;48.816;9.230;2023-04-29T02:43:19;14.10;99.90
4509;DHT22;2267;48.816;9.230;2023-04-29T02:45:46;14.10;99.90
4509;DHT22;2267;48.816;9.230;2023-04-29T02:48:13;14.00;99.90
4509;DHT22;2267;48.816;9.230;2023-04-29T02:50:39;14.00;99.90
4509;DHT22;2267;48.816;9.230;2023-04-29T02:53:06;14.00;99.90
4509;DHT22;2267;48.816;9.230;2023-04-29T02:55:33;14.00;99.90
4509;DHT22;2267;48.816;9.230;2023-04-29T02:58:00;13.90;99.90
4509;DHT22;2267;48.816;9.230;2023-04-29T03:00:26;13.90;99.90
4509;DHT22;2267;48.816;9.230;2023-04-29T03:02:53;13.90;99.90
4509;DHT22;2267;48.816;9.230;2023-04-29T03:05:20;13.90;99.90
4509;DHT22;2267;48.816;9.230;2023-04-29T03:07:47;13.90;99.90
4509;DHT22;2267;48.816;9.230;2023-04-29T03:10:14;13.90;99.90
4509;DHT22;2267;48.816;9.230;2023-04-29T03:12:40;13.80;99.90
4509;DHT22;2267;48.816;9.230;2023-04-29T03:15:07;13.80;99.90
4509;DHT22;2267;48.816;9.230;2023-04-29T03:17:36;13.80;99.90
4509;DHT22;2267;48.816;9.230;2023-04-29T03:20:03;13.80;99.90
4509;DHT22;2267;48.816;9.230;2023-04-29T03:22:30;13.70;99.90
4509;DHT22;2267;48.816;9.230;2023-04-29T03:24:57;13.70;99.90
4509;DHT22;2267;48.816;9.230;2023-04-29T03:27:24;13.70;99.90
4509;DHT22;2267;48.816;9.230;2023-04-29T03:29:51;13.70;99.90
4509;DHT22;2267;48.816;9.230;2023-04-29T03:32:18;13.60;99.90
4509;DHT22;2267;48.816;9.230;2023-04-29T03:34:45;13.60;99.90
4509;DHT22;2267;48.816;9.230;2023-04-29T03:37:12;13.60;99.90
4509;DHT22;2267;48.816;9.230;2023-04-29T03:39:39;13.60;99.90
4509;DHT22;2267;48.816;9.230;2023-04-29T03:42:06;13.50;99.90
4509;DHT22;2267;48.816;9.230;2023-04-29T03:44:33;13.50;99.90
4509;DHT22;2267;48.816;9.230;2023-04-29T03:46:59;13.50;99.90
4509;DHT22;2267;48.816;9.230;2023-04-29T03:49:26;13.50;99.90
4509;DHT22;2267;48.816;9.230;2023-04-29T03:51:53;13.50;99.90
4509;DHT22;2267;48.816;9.230;2023-04-29T03:54:20;13.40;99.90
4509;DHT22;2267;48.816;9.230;2023-04-29T03:56:47;13.40;99.90
4509;DHT22;2267;48.816;9.230;2023-04-29T03:59:13;13.40;99.90
4509;DHT22;2267;48.816;9.230;2023-04-29T04:01:40;13.40;99.90
4509;DHT22;2267;48.816;9.230;2023-04-29T04:04:07;13.40;99.90
4509;DHT22;2267;48.816;9.230;2023-04-29T04:06:34;13.40;99.90
4509;DHT22;2267;48.816;9.230;2023-04-29T04:09:01;13.30;99.90
4509;DHT22;2267;48.816;9.230;2023-04-29T04:11:28;13.30;99.90
4509;DHT22;2267;48.816;9.230;2023-04-29T04:13:55;13.30;99.90
4509;DHT22;2267;48.816;9.230;2023-04-29T04:16:21;13.30;99.90
4509;DHT22;2267;48.816;9.230;2023-04-29T04:18:48;13.30;99.90
4509;DHT22;2267;48.816;9.230;2023-04-29T04:21:15;13.30;99.90
4509;DHT22;2267;48.816;9.230;2023-04-29T04:23:42;13.30;99.90
4509;DHT22;2267;48.816;9.230;2023-04-29T04:26:09;13.20;99.90
4509;DHT22;2267;48.816;9.230;2023-04-29T04:28:36;13.20;99.90
4509;DHT22;2267;48.816;9.230;2023-04-29T04:31:03;13.20;99.90
4509;DHT22;2267;48.816;9.230;2023-04-29T04:33:31;13.20;99.90
4509;DHT22;2267;48.816;9.230;2023-04-29T04:35:58;13.20;99.90
4509;DHT22;2267;48.816;9.230;2023-04-29T04:38:24;13.10;99.90
4509;DHT22;2267;48.816;9.230;2023-04-29T04:40:52;13.10;99.90
4509;DHT22;2267;48.816;9.230;2023-04-29T04:43:19;13.10;99.90
4509;DHT22;2267;48.816;9.230;2023-04-29T04:45:46;13.10;99.90
4509;DHT22;2267;48.816;9.230;2023-04-29T04:48:12;13.10;99.90
4509;DHT22;2267;48.816;9.230;2023-04-29T04:50:39;13.10;99.90
4509;DHT22;2267;48.816;9.230;2023-04-29T04:53:06;13.10;99.90
4509;DHT22;2267;48.816;9.230;2023-04-29T04:55:33;13.10;99.90
4509;DHT22;2267;48.816;9.230;2023-04-29T04:58:00;13.10;99.90
4509;DHT22;2267;48.816;9.230;2023-04-29T05:00:26;13.10;99.90
4509;DHT22;2267;48.816;9.230;2023-04-29T05:02:53;13.10;99.90
4509;DHT22;2267;48.816;9.230;2023-04-29T05:05:20;13.10;99.90
4509;DHT22;2267;48.816;9.230;2023-04-29T05:07:47;13.00;99.90
4509;DHT22;2267;48.816;9.230;2023-04-29T05:10:14;13.00;99.90
4509;DHT22;2267;48.816;9.230;2023-04-29T05:12:41;13.00;99.90
4509;DHT22;2267;48.816;9.230;2023-04-29T05:15:07;13.00;99.90
4509;DHT22;2267;48.816;9.230;2023-04-29T05:17:34;13.00;99.90
4509;DHT22;2267;48.816;9.230;2023-04-29T05:20:02;13.00;99.90
4509;DHT22;2267;48.816;9.230;2023-04-29T05:22:29;13.00;99.90
4509;DHT22;2267;48.816;9.230;2023-04-29T05:24:56;13.00;99.90
4509;DHT22;2267;48.816;9.230;2023-04-29T05:27:28;13.00;99.90
4509;DHT22;2267;48.816;9.230;2023-04-29T05:29:55;13.00;99.90
4509;DHT22;2267;48.816;9.230;2023-04-29T05:32:22;13.10;99.90
4509;DHT22;2267;48.816;9.230;2023-04-29T05:34:49;13.10;99.90
4509;DHT22;2267;48.816;9.230;2023-04-29T05:37:16;13.10;99.90
4509;DHT22;2267;48.816;9.230;2023-04-29T05:39:44;13.20;99.90
4509;DHT22;2267;48.816;9.230;2023-04-29T05:42:10;13.20;99.90
4509;DHT22;2267;48.816;9.230;2023-04-29T05:44:37;13.30;99.90
4509;DHT22;2267;48.816;9.230;2023-04-29T05:47:05;13.30;99.90
4509;DHT22;2267;48.816;9.230;2023-04-29T05:49:32;13.40;99.90
4509;DHT22;2267;48.816;9.230;2023-04-29T05:51:58;13.40;99.90
4509;DHT22;2267;48.816;9.230;2023-04-29T05:54:29;13.50;99.90
4509;DHT22;2267;48.816;9.230;2023-04-29T05:56:56;13.50;99.90
4509;DHT22;2267;48.816;9.230;2023-04-29T05:59:23;13.60;99.90
4509;DHT22;2267;48.816;9.230;2023-04-29T06:01:50;13.70;99.90
4509;DHT22;2267;48.816;9.230;2023-04-29T06:04:16;13.70;99.90
4509;DHT22;2267;48.816;9.230;2023-04-29T06:06:43;13.80;99.90
4509;DHT22;2267;48.816;9.230;2023-04-29T06:09:10;13.80;99.90
4509;DHT22;2267;48.816;9.230;2023-04-29T06:11:52;14.00;99.90
4509;DHT22;2267;48.816;9.230;2023-04-29T06:14:19;14.00;99.90
4509;DHT22;2267;48.816;9.230;2023-04-29T06:16:46;14.10;99.90
4509;DHT22;2267;48.816;9.230;2023-04-29T06:19:14;14.20;99.90
4509;DHT22;2267;48.816;9.230;2023-04-29T06:21:41;14.30;99.90
4509;DHT22;2267;48.816;9.230;2023-04-29T06:24:08;14.30;99.90
4509;DHT22;2267;48.816;9.230;2023-04-29T06:26:35;14.30;99.90
4509;DHT22;2267;48.816;9.230;2023-04-29T06:29:02;14.40;99.90
4509;DHT22;2267;48.816;9.230;2023-04-29T06:31:29;14.40;99.90
4509;DHT22;2267;48.816;9.230;2023-04-29T06:33:56;14.50;99.90
4509;DHT22;2267;48.816;9.230;2023-04-29T06:36:23;14.50;99.90
4509;DHT22;2267;48.816;9.230;2023-04-29T06:38:49;14.60;99.90
4509;DHT22;2267;48.816;9.230;2023-04-29T06:41:16;14.60;99.90
4509;DHT22;2267;48.816;9.230;2023-04-29T06:43:43;14.70;99.90
4509;DHT22;2267;48.816;9.230;2023-04-29T06:46:14;14.70;99.90
4509;DHT22;2267;48.816;9.230;2023-04-29T06:48:42;14.70;99.90
4509;DHT22;2267;48.816;9.230;2023-04-29T06:51:09;14.70;99.90
4509;DHT22;2267;48.816;9.230;2023-04-29T06:53:35;14.80;99.90
4509;DHT22;2267;48.816;9.230;2023-04-29T06:56:02;14.80;99.90
4509;DHT22;2267;48.816;9.230;2023-04-29T06:58:29;14.90;99.90
4509;DHT22;2267;48.816;9.230;2023-04-29T07:00:56;14.90;99.90
4509;DHT22;2267;48.816;9.230;2023-04-29T07:03:23;14.80;99.90
4509;DHT22;2267;48.816;9.230;2023-04-29T07:05:50;14.80;99.90
4509;DHT22;2267;48.816;9.230;2023-04-29T07:08:17;14.80;99.90
4509;DHT22;2267;48.816;9.230;2023-04-29T07:10:48;14.80;99.90
4509;DHT22;2267;48.816;9.230;2023-04-29T07:13:18;14.90;99.90
4509;DHT22;2267;48.816;9.230;2023-04-29T07:15:45;14.80;99.90
4509;DHT22;2267;48.816;9.230;2023-04-29T07:18:12;14.90;99.90
4509;DHT22;2267;48.816;9.230;2023-04-29T07:20:39;14.90;99.90
4509;DHT22;2267;48.816;9.230;2023-04-29T07:23:05;14.90;99.90
4509;DHT22;2267;48.816;9.230;2023-04-29T07:25:32;14.90;99.90
4509;DHT22;2267;48.816;9.230;2023-04-29T07:27:59;14.90;99.90
4509;DHT22;2267;48.816;9.230;2023-04-29T07:30:26;15.00;99.90
4509;DHT22;2267;48.816;9.230;2023-04-29T07:32:53;15.00;99.90
4509;DHT22;2267;48.816;9.230;2023-04-29T07:35:20;15.00;99.90
4509;DHT22;2267;48.816;9.230;2023-04-29T07:37:47;15.10;99.90
4509;DHT22;2267;48.816;9.230;2023-04-29T07:40:14;15.10;99.90
4509;DHT22;2267;48.816;9.230;2023-04-29T07:42:41;15.10;99.90
4509;DHT22;2267;48.816;9.230;2023-04-29T07:45:08;15.10;99.90
4509;DHT22;2267;48.816;9.230;2023-04-29T07:47:36;15.20;99.90
4509;DHT22;2267;48.816;9.230;2023-04-29T07:50:03;15.20;99.90
4509;DHT22;2267;48.816;9.230;2023-04-29T07:52:30;15.20;99.90
4509;DHT22;2267;48.816;9.230;2023-04-29T07:54:57;15.30;99.90
4509;DHT22;2267;48.816;9.230;2023-04-29T07:57:24;15.30;99.90
4509;DHT22;2267;48.816;9.230;2023-04-29T07:59:52;15.30;99.90
4509;DHT22;2267;48.816;9.230;2023-04-29T08:02:19;15.30;99.90
4509;DHT22;2267;48.816;9.230;2023-04-29T08:04:46;15.30;99.90
4509;DHT22;2267;48.816;9.230;2023-04-29T08:07:13;15.30;99.90
4509;DHT22;2267;48.816;9.230;2023-04-29T08:09:40;15.30;99.90
4509;DHT22;2267;48.816;9.230;2023-04-29T08:12:07;15.20;99.90
4509;DHT22;2267;48.816;9.230;2023-04-29T08:14:34;15.20;99.90
4509;DHT22;2267;48.816;9.230;2023-04-29T08:17:01;15.20;99.90
4509;DHT22;2267;48.816;9.230;2023-04-29T08:19:28;15.10;99.90
4509;DHT22;2267;48.816;9.230;2023-04-29T08:21:54;15.20;99.90
4509;DHT22;2267;48.816;9.230;2023-04-29T08:24:22;15.20;99.90
4509;DHT22;2267;48.816;9.230;2023-04-29T08:26:48;15.20;99.90
4509;DHT22;2267;48.816;9.230;2023-04-29T08:29:15;15.20;99.90
4509;DHT22;2267;48.816;9.230;2023-04-29T08:31:42;15.20;99.90
4509;DHT22;2267;48.816;9.230;2023-04-29T08:34:09;15.20;99.90
4509;DHT22;2267;48.816;9.230;2023-04-29T08:36:36;15.20;99.90
4509;DHT22;2267;48.816;9.230;2023-04-29T08:39:04;15.20;99.90
4509;DHT22;2267;48.816;9.230;2023-04-29T08:41:31;15.20;99.90
4509;DHT22;2267;48.816;9.230;2023-04-29T08:43:59;15.20;99.90
4509;DHT22;2267;48.816;9.230;2023-04-29T08:46:26;15.20;99.90
4509;DHT22;2267;48.816;9.230;2023-04-29T08:48:54;15.30;99.90
4509;DHT22;2267;48.816;9.230;2023-04-29T08:51:23;15.30;99.90
4509;DHT22;2267;48.816;9.230;2023-04-29T08:53:50;15.30;99.90
4509;DHT22;2267;48.816;9.230;2023-04-29T08:56:17;15.30;99.90
4509;DHT22;2267;48.816;9.230;2023-04-29T08:58:50;15.30;99.90
4509;DHT22;2267;48.816;9.230;2023-04-29T09:01:20;15.40;99.90
4509;DHT22;2267;48.816;9.230;2023-04-29T09:03:50;15.40;99.90
4509;DHT22;2267;48.816;9.230;2023-04-29T09:06:20;15.40;99.90
4509;DHT22;2267;48.816;9.230;2023-04-29T09:08:47;15.40;99.90
4509;DHT22;2267;48.816;9.230;2023-04-29T09:11:14;15.40;99.90
4509;DHT22;2267;48.816;9.230;2023-04-29T09:13:41;15.50;99.90
4509;DHT22;2267;48.816;9.230;2023-04-29T09:16:12;15.50;99.90
4509;DHT22;2267;48.816;9.230;2023-04-29T09:23:53;15.60;99.90
4509;DHT22;2267;48.816;9.230;2023-04-29T09:26:20;15.60;99.90
4509;DHT22;2267;48.816;9.230;2023-04-29T09:29:08;15.70;99.90
4509;DHT22;2267;48.816;9.230;2023-04-29T09:31:37;15.70;99.90
4509;DHT22;2267;48.816;9.230;2023-04-29T09:34:05;15.70;99.90
4509;DHT22;2267;48.816;9.230;2023-04-29T09:39:09;15.80;99.90
4509;DHT22;2267;48.816;9.230;2023-04-29T09:41:39;15.90;99.90
4509;DHT22;2267;48.816;9.230;2023-04-29T09:44:08;15.90;99.90
4509;DHT22;2267;48.816;9.230;2023-04-29T09:46:36;15.90;99.90
4509;DHT22;2267;48.816;9.230;2023-04-29T09:49:03;16.00;99.90
4509;DHT22;2267;48.816;9.230;2023-04-29T09:51:58;16.00;99.90
4509;DHT22;2267;48.816;9.230;2023-04-29T09:54:29;16.10;99.90
4509;DHT22;2267;48.816;9.230;2023-04-29T09:56:57;16.20;99.90
4509;DHT22;2267;48.816;9.230;2023-04-29T09:59:25;16.20;99.90
4509;DHT22;2267;48.816;9.230;2023-04-29T10:01:53;16.20;99.90
4509;DHT22;2267;48.816;9.230;2023-04-29T10:04:23;16.30;99.90
4509;DHT22;2267;48.816;9.230;2023-04-29T10:06:51;16.20;99.90
4509;DHT22;2267;48.816;9.230;2023-04-29T10:09:19;16.30;99.90
4509;DHT22;2267;48.816;9.230;2023-04-29T10:11:51;16.30;99.90
4509;DHT22;2267;48.816;9.230;2023-04-29T10:14:20;16.40;99.90
4509;DHT22;2267;48.816;9.230;2023-04-29T10:16:47;16.50;99.90
4509;DHT22;2267;48.816;9.230;2023-04-29T10:19:25;16.50;99.90
4509;DHT22;2267;48.816;9.230;2023-04-29T10:21:54;16.60;99.90
4509;DHT22;2267;48.816;9.230;2023-04-29T10:24:24;16.60;99.90
4509;DHT22;2267;48.816;9.230;2023-04-29T10:26:52;16.70;99.90
4509;DHT22;2267;48.816;9.230;2023-04-29T10:29:22;16.80;99.90
4509;DHT22;2267;48.816;9.230;2023-04-29T10:31:51;16.80;99.90
4509;DHT22;2267;48.816;9.230;2023-04-29T10:34:19;16.90;99.90
4509;DHT22;2267;48.816;9.230;2023-04-29T10:36:47;17.00;99.90
4509;DHT22;2267;48.816;9.230;2023-04-29T10:42:44;17.10;99.90
4509;DHT22;2267;48.816;9.230;2023-04-29T10:50:33;17.40;99.90
4509;DHT22;2267;48.816;9.230;2023-04-29T10:53:03;17.40;99.90
4509;DHT22;2267;48.816;9.230;2023-04-29T10:55:32;17.50;99.90
4509;DHT22;2267;48.816;9.230;2023-04-29T10:58:02;17.50;99.90
4509;DHT22;2267;48.816;9.230;2023-04-29T11:00:34;17.60;99.90
4509;DHT22;2267;48.816;9.230;2023-04-29T11:03:05;17.70;99.90
4509;DHT22;2267;48.816;9.230;2023-04-29T11:05:34;17.80;99.90
4509;DHT22;2267;48.816;9.230;2023-04-29T11:08:14;17.80;99.90
4509;DHT22;2267;48.816;9.230;2023-04-29T11:10:53;17.80;99.90
4509;DHT22;2267;48.816;9.230;2023-04-29T11:13:22;17.80;99.90
4509;DHT22;2267;48.816;9.230;2023-04-29T11:16:03;17.70;99.90
4509;DHT22;2267;48.816;9.230;2023-04-29T11:18:31;17.70;99.90
4509;DHT22;2267;48.816;9.230;2023-04-29T11:23:36;17.70;99.90
4509;DHT22;2267;48.816;9.230;2023-04-29T11:26:04;17.70;99.90
4509;DHT22;2267;48.816;9.230;2023-04-29T11:28:31;17.80;99.90
4509;DHT22;2267;48.816;9.230;2023-04-29T11:30:59;17.80;99.90
4509;DHT22;2267;48.816;9.230;2023-04-29T11:33:26;17.80;99.90
4509;DHT22;2267;48.816;9.230;2023-04-29T11:35:54;17.80;99.90
4509;DHT22;2267;48.816;9.230;2023-04-29T11:38:25;17.80;99.90
4509;DHT22;2267;48.816;9.230;2023-04-29T11:40:54;17.80;99.90
4509;DHT22;2267;48.816;9.230;2023-04-29T11:43:21;17.70;99.90
4509;DHT22;2267;48.816;9.230;2023-04-29T11:45:49;17.80;99.90
4509;DHT22;2267;48.816;9.230;2023-04-29T11:48:18;17.90;99.90
4509;DHT22;2267;48.816;9.230;2023-04-29T11:50:50;17.80;99.90
4509;DHT22;2267;48.816;9.230;2023-04-29T11:53:22;17.80;99.90
4509;DHT22;2267;48.816;9.230;2023-04-29T11:55:54;17.90;99.90
4509;DHT22;2267;48.816;9.230;2023-04-29T11:58:22;17.80;99.90
4509;DHT22;2267;48.816;9.230;2023-04-29T12:00:50;17.90;99.90
4509;DHT22;2267;48.816;9.230;2023-04-29T12:03:18;17.90;99.90
4509;DHT22;2267;48.816;9.230;2023-04-29T12:05:50;17.90;99.90
4509;DHT22;2267;48.816;9.230;2023-04-29T12:08:26;17.90;99.90
4509;DHT22;2267;48.816;9.230;2023-04-29T12:10:56;18.10;99.90
4509;DHT22;2267;48.816;9.230;2023-04-29T12:13:24;18.30;99.90
4509;DHT22;2267;48.816;9.230;2023-04-29T12:15:52;18.50;99.90
4509;DHT22;2267;48.816;9.230;2023-04-29T12:18:19;18.80;99.90
4509;DHT22;2267;48.816;9.230;2023-04-29T12:20:49;19.00;99.90
4509;DHT22;2267;48.816;9.230;2023-04-29T12:23:24;19.20;99.90
4509;DHT22;2267;48.816;9.230;2023-04-29T12:25:55;19.40;99.90
4509;DHT22;2267;48.816;9.230;2023-04-29T12:28:22;19.40;99.90
4509;DHT22;2267;48.816;9.230;2023-04-29T12:30:51;19.60;99.90
4509;DHT22;2267;48.816;9.230;2023-04-29T12:35:48;19.70;99.90
4509;DHT22;2267;48.816;9.230;2023-04-29T12:38:23;19.60;99.90
4509;DHT22;2267;48.816;9.230;2023-04-29T12:40:49;19.60;99.90
4509;DHT22;2267;48.816;9.230;2023-04-29T12:43:16;19.70;99.90
4509;DHT22;2267;48.816;9.230;2023-04-29T12:45:44;19.60;99.90
4509;DHT22;2267;48.816;9.230;2023-04-29T12:48:11;19.50;99.90
4509;DHT22;2267;48.816;9.230;2023-04-29T12:50:55;19.30;99.90
4509;DHT22;2267;48.816;9.230;2023-04-29T12:53:24;19.30;99.90
4509;DHT22;2267;48.816;9.230;2023-04-29T12:55:51;19.20;99.90
4509;DHT22;2267;48.816;9.230;2023-04-29T12:58:20;19.10;99.90
4509;DHT22;2267;48.816;9.230;2023-04-29T13:00:47;19.10;99.90
4509;DHT22;2267;48.816;9.230;2023-04-29T13:03:13;19.00;99.90
4509;DHT22;2267;48.816;9.230;2023-04-29T13:05:41;19.00;99.90
4509;DHT22;2267;48.816;9.230;2023-04-29T13:08:08;19.10;99.90
4509;DHT22;2267;48.816;9.230;2023-04-29T13:10:35;19.20;99.90
4509;DHT22;2267;48.816;9.230;2023-04-29T13:13:02;19.30;99.90
4509;DHT22;2267;48.816;9.230;2023-04-29T13:15:29;19.40;99.90
4509;DHT22;2267;48.816;9.230;2023-04-29T13:17:56;19.60;99.90
4509;DHT22;2267;48.816;9.230;2023-04-29T13:20:24;19.90;99.90
4509;DHT22;2267;48.816;9.230;2023-04-29T13:22:50;19.90;99.90
4509;DHT22;2267;48.816;9.230;2023-04-29T13:25:17;19.90;99.90
4509;DHT22;2267;48.816;9.230;2023-04-29T13:27:44;20.00;99.90
4509;DHT22;2267;48.816;9.230;2023-04-29T13:30:11;20.30;99.80
4509;DHT22;2267;48.816;9.230;2023-04-29T13:32:38;20.40;99.70
4509;DHT22;2267;48.816;9.230;2023-04-29T13:35:17;20.30;99.20
4509;DHT22;2267;48.816;9.230;2023-04-29T13:37:43;20.40;99.90
4509;DHT22;2267;48.816;9.230;2023-04-29T13:40:11;20.70;99.90
4509;DHT22;2267;48.816;9.230;2023-04-29T13:42:46;20.90;99.90
4509;DHT22;2267;48.816;9.230;2023-04-29T13:45:18;21.10;99.90
4509;DHT22;2267;48.816;9.230;2023-04-29T13:47:45;21.30;99.90
4509;DHT22;2267;48.816;9.230;2023-04-29T13:50:32;21.40;99.90
4509;DHT22;2267;48.816;9.230;2023-04-29T13:53:19;21.40;99.60
4509;DHT22;2267;48.816;9.230;2023-04-29T13:56:06;21.50;99.30
4509;DHT22;2267;48.816;9.230;2023-04-29T13:58:36;21.70;98.70
4509;DHT22;2267;48.816;9.230;2023-04-29T14:01:22;21.80;98.10
4509;DHT22;2267;48.816;9.230;2023-04-29T14:03:52;21.80;97.30
4509;DHT22;2267;48.816;9.230;2023-04-29T14:06:19;21.90;97.30
4509;DHT22;2267;48.816;9.230;2023-04-29T14:08:46;22.00;97.20
4509;DHT22;2267;48.816;9.230;2023-04-29T14:11:13;22.00;96.90
4509;DHT22;2267;48.816;9.230;2023-04-29T14:13:40;22.10;96.50
4509;DHT22;2267;48.816;9.230;2023-04-29T14:16:07;22.10;96.40
4509;DHT22;2267;48.816;9.230;2023-04-29T14:18:35;22.10;96.10
4509;DHT22;2267;48.816;9.230;2023-04-29T14:21:02;22.10;95.00
4509;DHT22;2267;48.816;9.230;2023-04-29T14:23:28;22.00;95.40
4509;DHT22;2267;48.816;9.230;2023-04-29T14:25:55;22.10;95.60
4509;DHT22;2267;48.816;9.230;2023-04-29T14:28:42;22.20;95.60
4509;DHT22;2267;48.816;9.230;2023-04-29T14:31:09;22.20;95.20
4509;DHT22;2267;48.816;9.230;2023-04-29T14:33:39;22.30;95.10
4509;DHT22;2267;48.816;9.230;2023-04-29T14:36:06;22.20;94.90
4509;DHT22;2267;48.816;9.230;2023-04-29T14:38:33;22.10;94.80
4509;DHT22;2267;48.816;9.230;2023-04-29T14:41:00;22.10;94.00
4509;DHT22;2267;48.816;9.230;2023-04-29T14:43:26;21.90;94.10
4509;DHT22;2267;48.816;9.230;2023-04-29T14:45:54;21.70;93.80
4509;DHT22;2267;48.816;9.230;2023-04-29T14:48:21;21.60;93.30
4509;DHT22;2267;48.816;9.230;2023-04-29T14:50:49;21.50;94.00
4509;DHT22;2267;48.816;9.230;2023-04-29T14:53:15;21.50;94.20
4509;DHT22;2267;48.816;9.230;2023-04-29T14:55:42;21.30;93.30
4509;DHT22;2267;48.816;9.230;2023-04-29T14:58:09;21.20;93.90
4509;DHT22;2267;48.816;9.230;2023-04-29T15:00:36;21.20;94.10
4509;DHT22;2267;48.816;9.230;2023-04-29T15:03:03;21.10;94.50
4509;DHT22;2267;48.816;9.230;2023-04-29T15:05:30;21.10;94.10
4509;DHT22;2267;48.816;9.230;2023-04-29T15:07:58;21.00;93.90
4509;DHT22;2267;48.816;9.230;2023-04-29T15:10:27;20.80;93.80
4509;DHT22;2267;48.816;9.230;2023-04-29T15:12:54;20.50;93.40
4509;DHT22;2267;48.816;9.230;2023-04-29T15:15:22;20.40;94.00
4509;DHT22;2267;48.816;9.230;2023-04-29T15:17:49;20.20;94.50
4509;DHT22;2267;48.816;9.230;2023-04-29T15:20:16;20.10;94.70
4509;DHT22;2267;48.816;9.230;2023-04-29T15:22:43;20.00;94.90
4509;DHT22;2267;48.816;9.230;2023-04-29T15:25:10;19.80;95.00
4509;DHT22;2267;48.816;9.230;2023-04-29T15:27:37;19.70;95.30
4509;DHT22;2267;48.816;9.230;2023-04-29T15:30:04;19.60;95.60
4509;DHT22;2267;48.816;9.230;2023-04-29T15:32:32;19.50;95.90
4509;DHT22;2267;48.816;9.230;2023-04-29T15:35:00;19.50;95.90
4509;DHT22;2267;48.816;9.230;2023-04-29T15:37:28;19.40;95.90
4509;DHT22;2267;48.816;9.230;2023-04-29T15:39:59;19.30;96.00
4509;DHT22;2267;48.816;9.230;2023-04-29T15:42:27;19.30;96.30
4509;DHT22;2267;48.816;9.230;2023-04-29T15:44:54;19.20;96.30
4509;DHT22;2267;48.816;9.230;2023-04-29T15:47:21;19.20;96.40
4509;DHT22;2267;48.816;9.230;2023-04-29T15:49:48;19.10;96.60
4509;DHT22;2267;48.816;9.230;2023-04-29T15:52:18;19.10;96.70
4509;DHT22;2267;48.816;9.230;2023-04-29T15:54:44;19.00;96.30
4509;DHT22;2267;48.816;9.230;2023-04-29T15:57:12;18.90;96.10
4509;DHT22;2267;48.816;9.230;2023-04-29T15:59:38;18.90;96.40
4509;DHT22;2267;48.816;9.230;2023-04-29T16:02:05;18.80;96.70
4509;DHT22;2267;48.816;9.230;2023-04-29T16:04:37;18.80;96.90
4509;DHT22;2267;48.816;9.230;2023-04-29T16:07:04;18.70;96.90
4509;DHT22;2267;48.816;9.230;2023-04-29T16:09:34;18.70;97.20
4509;DHT22;2267;48.816;9.230;2023-04-29T16:12:01;18.70;97.30
4509;DHT22;2267;48.816;9.230;2023-04-29T16:14:28;18.60;97.20
4509;DHT22;2267;48.816;9.230;2023-04-29T16:16:55;18.60;97.30
4509;DHT22;2267;48.816;9.230;2023-04-29T16:19:22;18.60;97.50
4509;DHT22;2267;48.816;9.230;2023-04-29T16:21:49;18.50;97.40
4509;DHT22;2267;48.816;9.230;2023-04-29T16:24:16;18.60;97.70
4509;DHT22;2267;48.816;9.230;2023-04-29T16:26:43;18.40;97.30
4509;DHT22;2267;48.816;9.230;2023-04-29T16:29:10;18.40;97.40
4509;DHT22;2267;48.816;9.230;2023-04-29T16:31:39;18.40;97.50
4509;DHT22;2267;48.816;9.230;2023-04-29T16:34:06;18.30;97.80
4509;DHT22;2267;48.816;9.230;2023-04-29T16:36:32;18.30;97.80
4509;DHT22;2267;48.816;9.230;2023-04-29T16:38:59;18.30;98.00
4509;DHT22;2267;48.816;9.230;2023-04-29T16:41:28;18.30;98.20
4509;DHT22;2267;48.816;9.230;2023-04-29T16:43:55;18.20;98.20